createdAt,value
2019-01-04T00:02:38.251Z,83.66
2019-01-04T00:07:44.714Z,83.60
2019-01-04T00:12:51.863Z,83.85
2019-01-04T00:17:58.532Z,83.94
2019-01-04T00:23:05.142Z,83.46
2019-01-04T00:28:11.755Z,84.30
2019-01-04T00:33:18.425Z,84.35
2019-01-04T00:38:25.899Z,84.52
2019-01-04T00:43:32.648Z,84.31
2019-01-04T00:48:39.011Z,83.64
2019-01-04T00:53:45.656Z,83.17
2019-01-04T00:59:22.796Z,83.79
2019-01-04T01:04:59.981Z,83.77
2019-01-04T01:10:50.332Z,82.95
2019-01-04T01:16:47.604Z,83.36
2019-01-04T01:22:58.513Z,83.10
2019-01-04T01:29:03.960Z,82.63
2019-01-04T01:34:51.280Z,82.82
2019-01-04T01:40:27.639Z,81.69
2019-01-04T01:46:10.970Z,82.02
2019-01-04T01:51:40.694Z,81.73
2019-01-04T01:56:47.076Z,82.78
2019-01-04T02:01:53.625Z,82.07
2019-01-04T02:06:59.919Z,82.25
2019-01-04T02:12:06.429Z,81.93
2019-01-04T02:17:13.045Z,82.44
2019-01-04T02:22:19.519Z,81.12
2019-01-04T02:27:25.989Z,81.50
2019-01-04T02:32:32.870Z,81.24
2019-01-04T02:37:38.974Z,80.92
2019-01-04T02:42:45.278Z,80.56
2019-01-04T02:47:52.818Z,80.85
2019-01-04T02:52:59.176Z,81.26
2019-01-04T02:58:05.915Z,80.96
2019-01-04T03:03:12.552Z,80.65
2019-01-04T03:08:19.241Z,80.45
2019-01-04T03:13:26.290Z,80.89
2019-01-04T03:18:32.705Z,80.31
2019-01-04T03:23:40.207Z,80.93
2019-01-04T03:28:46.762Z,80.97
2019-01-04T03:33:54.479Z,82.03
2019-01-04T03:39:00.803Z,80.66
2019-01-04T03:44:08.355Z,80.89
2019-01-04T03:49:14.718Z,80.45
2019-01-04T03:54:21.070Z,81.92
2019-01-04T03:59:27.416Z,82.49
2019-01-04T04:04:33.883Z,83.43
2019-01-04T04:09:40.395Z,83.62
2019-01-04T04:14:46.934Z,84.06
2019-01-04T04:19:53.483Z,83.99
2019-01-04T04:24:59.886Z,84.52
2019-01-04T04:30:06.545Z,84.17
2019-01-04T04:35:12.804Z,84.11
2019-01-04T04:40:19.164Z,83.86
2019-01-04T04:45:25.473Z,84.32
2019-01-04T04:50:32.184Z,84.89
2019-01-04T04:55:38.576Z,84.84
2019-01-04T05:00:44.855Z,84.42
2019-01-04T05:05:51.045Z,84.24
2019-01-04T05:10:57.367Z,85.32
2019-01-04T05:16:04.867Z,85.28
2019-01-04T05:21:11.303Z,85.66
2019-01-04T05:26:17.724Z,86.18
2019-01-04T05:31:24.244Z,85.57
2019-01-04T05:36:31.613Z,86.12
2019-01-04T05:41:38.557Z,86.31
2019-01-04T05:46:44.989Z,86.28
2019-01-04T05:51:51.588Z,86.51
2019-01-04T05:56:57.906Z,86.57
2019-01-04T06:02:04.909Z,85.95
2019-01-04T06:07:11.218Z,85.38
2019-01-04T06:12:17.761Z,85.60
2019-01-04T06:17:24.211Z,85.49
2019-01-04T06:22:30.758Z,85.43
2019-01-04T06:27:37.267Z,85.45
2019-01-04T06:32:43.609Z,85.63
2019-01-04T06:37:50.214Z,85.20
2019-01-04T06:42:56.445Z,85.42
2019-01-04T06:48:03.261Z,85.87
2019-01-04T06:53:09.927Z,85.83
2019-01-04T06:58:16.105Z,85.08
2019-01-04T07:03:22.765Z,85.04
2019-01-04T07:08:29.456Z,85.61
2019-01-04T07:13:36.272Z,85.31
2019-01-04T07:18:42.651Z,85.04
2019-01-04T07:23:49.310Z,84.80
2019-01-04T07:28:57.405Z,85.18
2019-01-04T07:34:03.844Z,84.31
2019-01-04T07:39:10.079Z,84.12
2019-01-04T07:44:16.633Z,84.21
2019-01-04T07:49:22.915Z,84.19
2019-01-04T07:54:29.251Z,82.87
2019-01-04T07:59:35.941Z,82.01
2019-01-04T08:04:42.539Z,78.35
2019-01-04T08:09:48.893Z,77.96
2019-01-04T08:14:55.941Z,78.13
2019-01-04T08:20:02.986Z,77.56
2019-01-04T08:25:10.676Z,77.85
2019-01-04T08:30:21.191Z,78.97
2019-01-04T08:35:27.751Z,78.16
2019-01-04T08:40:34.361Z,78.05
2019-01-04T08:45:40.970Z,77.79
2019-01-04T08:50:47.634Z,76.44
2019-01-04T08:55:54.416Z,76.09
2019-01-04T09:01:00.842Z,76.28
2019-01-04T09:06:07.363Z,76.80
2019-01-04T09:11:13.949Z,75.76
2019-01-04T09:16:20.658Z,75.79
2019-01-04T09:21:27.415Z,76.27
2019-01-04T09:26:34.282Z,75.92
2019-01-04T09:31:40.653Z,75.86
2019-01-04T09:36:47.403Z,75.48
2019-01-04T09:42:13.608Z,75.91
2019-01-04T09:47:20.308Z,75.35
2019-01-04T09:52:26.682Z,75.35
2019-01-04T09:57:33.518Z,75.66
2019-01-04T10:02:41.317Z,75.29
2019-01-04T10:07:47.496Z,75.07
2019-01-04T10:12:54.887Z,74.55
2019-01-04T10:18:01.593Z,72.87
2019-01-04T10:23:08.004Z,73.51
2019-01-04T10:28:14.367Z,73.48
2019-01-04T10:33:20.588Z,72.79
2019-01-04T10:38:26.988Z,72.84
2019-01-04T10:43:33.262Z,73.51
2019-01-04T10:48:39.631Z,73.04
2019-01-04T10:53:45.701Z,73.68
2019-01-04T10:58:51.993Z,73.49
2019-01-04T11:03:58.460Z,73.68
2019-01-04T11:09:06.959Z,73.27
2019-01-04T11:14:13.971Z,74.58
2019-01-04T11:19:20.789Z,74.62
2019-01-04T11:24:56.619Z,74.65
2019-01-04T11:30:23.474Z,74.70
2019-01-04T11:35:42.462Z,75.10
2019-01-04T11:41:30.098Z,75.16
2019-01-04T11:47:05.364Z,75.08
2019-01-04T11:52:22.806Z,75.21
2019-01-04T11:57:28.864Z,74.78
2019-01-04T12:02:35.229Z,74.73
2019-01-04T12:07:41.675Z,74.89
2019-01-04T12:12:50.304Z,74.87
2019-01-04T12:17:56.578Z,74.73
2019-01-04T12:23:02.768Z,74.95
2019-01-04T12:28:09.031Z,75.27
2019-01-04T12:33:15.583Z,75.78
2019-01-04T12:38:21.813Z,75.76
2019-01-04T12:43:28.183Z,75.13
2019-01-04T12:48:34.617Z,75.50
2019-01-04T12:53:40.924Z,75.21
2019-01-04T12:58:47.564Z,74.68
2019-01-04T13:03:55.704Z,74.83
2019-01-04T13:09:02.588Z,74.95
2019-01-04T13:14:10.063Z,75.50
2019-01-04T13:19:16.724Z,75.17
2019-01-04T13:24:23.028Z,75.39
2019-01-04T13:29:29.711Z,75.72
2019-01-04T13:34:36.436Z,76.45
2019-01-04T13:39:42.957Z,76.23
2019-01-04T13:44:49.285Z,76.98
2019-01-04T13:49:58.280Z,76.57
2019-01-04T13:55:04.535Z,76.75
2019-01-04T14:00:11.596Z,77.35
2019-01-04T14:05:17.735Z,76.82
2019-01-04T14:10:24.007Z,77.68
2019-01-04T14:15:30.754Z,77.61
2019-01-04T14:20:37.326Z,78.11
2019-01-04T14:25:43.728Z,78.27
2019-01-04T14:30:49.964Z,78.22
2019-01-04T14:35:57.659Z,78.25
2019-01-04T14:41:04.155Z,78.64
2019-01-04T14:46:10.510Z,78.45
2019-01-04T14:51:16.984Z,78.50
2019-01-04T14:56:23.297Z,78.21
2019-01-04T15:01:29.753Z,79.18
2019-01-04T15:06:36.722Z,79.30
2019-01-04T15:11:42.889Z,79.35
2019-01-04T15:16:49.502Z,79.78
2019-01-04T15:21:56.583Z,80.42
2019-01-04T15:27:02.867Z,81.18
2019-01-04T15:32:09.355Z,80.88
2019-01-04T15:37:17.493Z,80.75
2019-01-04T15:42:23.969Z,81.16
2019-01-04T15:47:30.270Z,81.53
2019-01-04T15:52:36.567Z,81.25
2019-01-04T15:57:42.933Z,81.10
2019-01-04T16:02:49.324Z,79.97
2019-01-04T16:07:55.912Z,80.46
2019-01-04T16:13:02.549Z,80.37
2019-01-04T16:18:09.018Z,80.86
2019-01-04T16:23:15.439Z,80.95
2019-01-04T16:28:21.750Z,81.24
2019-01-04T16:33:28.890Z,81.29
2019-01-04T16:38:35.564Z,81.60
2019-01-04T16:43:42.243Z,81.85
2019-01-04T16:48:48.525Z,81.61
2019-01-04T16:53:54.807Z,80.90
2019-01-04T16:59:01.671Z,81.47
2019-01-04T17:04:07.932Z,81.73
2019-01-04T17:09:14.186Z,82.08
2019-01-04T17:14:20.240Z,82.18
2019-01-04T17:19:26.841Z,82.04
2019-01-04T17:24:33.335Z,81.54
2019-01-04T17:29:39.741Z,81.53
2019-01-04T17:34:46.255Z,80.55
2019-01-04T17:39:52.517Z,80.66
2019-01-04T17:44:59.117Z,80.97
2019-01-04T17:50:06.249Z,81.47
2019-01-04T17:55:12.730Z,81.33
2019-01-04T18:00:19.235Z,81.43
2019-01-04T18:05:25.654Z,81.62
2019-01-04T18:10:32.380Z,81.55
2019-01-04T18:15:38.922Z,80.22
2019-01-04T18:20:45.501Z,79.91
2019-01-04T18:25:51.965Z,79.62
2019-01-04T18:31:01.178Z,80.45
2019-01-04T18:36:08.365Z,79.95
2019-01-04T18:41:14.696Z,80.38
2019-01-04T18:46:20.971Z,80.80
2019-01-04T18:51:27.527Z,80.96
2019-01-04T18:56:35.645Z,80.64
2019-01-04T19:01:43.482Z,81.15
2019-01-04T19:06:49.735Z,81.38
2019-01-04T19:11:56.550Z,81.29
2019-01-04T19:17:04.176Z,81.00
2019-01-04T19:22:10.697Z,81.96
2019-01-04T19:27:17.298Z,81.96
2019-01-04T19:32:23.702Z,81.44
2019-01-04T19:37:30.000Z,82.16
2019-01-04T19:42:37.585Z,82.44
2019-01-04T19:47:44.630Z,81.95
2019-01-04T19:52:51.976Z,82.17
2019-01-04T19:57:58.832Z,82.18
2019-01-04T20:03:05.500Z,82.79
2019-01-04T20:09:03.444Z,82.66
2019-01-04T20:15:28.350Z,82.85
2019-01-04T20:20:55.002Z,82.98
2019-01-04T20:26:18.923Z,82.95
2019-01-04T20:31:48.414Z,83.58
2019-01-04T20:37:12.758Z,83.76
2019-01-04T20:42:36.914Z,83.92
2019-01-04T20:48:01.339Z,84.02
2019-01-04T20:53:25.507Z,83.06
2019-01-04T20:58:56.819Z,83.15
2019-01-04T21:04:25.214Z,82.87
2019-01-04T21:10:02.432Z,82.87
2019-01-04T21:15:26.956Z,82.36
2019-01-04T21:21:01.529Z,81.91
2019-01-04T21:26:27.675Z,81.92
2019-01-04T21:31:51.706Z,81.74
2019-01-04T21:37:20.130Z,81.54
2019-01-04T21:42:54.689Z,81.58
2019-01-04T21:48:18.780Z,81.27
2019-01-04T21:53:42.566Z,80.77
2019-01-04T21:59:08.371Z,81.29
2019-01-04T22:04:30.586Z,81.24
2019-01-04T22:09:59.826Z,81.68
2019-01-04T22:15:23.928Z,81.91
2019-01-04T22:20:48.172Z,81.75
2019-01-04T22:26:12.289Z,80.72
2019-01-04T22:31:37.562Z,80.80
2019-01-04T22:36:56.844Z,80.56
2019-01-04T22:42:25.047Z,80.84
2019-01-04T22:47:49.611Z,80.96
2019-01-04T22:53:13.799Z,80.29
2019-01-04T22:58:34.635Z,81.32
2019-01-04T23:04:15.234Z,81.08
2019-01-04T23:09:39.163Z,81.28
2019-01-04T23:15:19.900Z,81.33
2019-01-04T23:20:49.908Z,81.19
2019-01-04T23:26:19.333Z,81.80
2019-01-04T23:31:39.457Z,82.12
2019-01-04T23:37:10.791Z,81.80
2019-01-04T23:42:35.062Z,82.17
2019-01-04T23:47:59.085Z,81.63
2019-01-04T23:53:22.884Z,81.38
2019-01-04T23:58:56.702Z,81.73
